createdAt,value
2016-11-01T00:02:31.532Z,0
2016-11-01T00:07:31.476Z,0
2016-11-01T00:12:31.275Z,0
2016-11-01T00:17:31.072Z,0
2016-11-01T00:22:31.362Z,0
2016-11-01T00:27:30.976Z,0
2016-11-01T00:32:31.224Z,0
2016-11-01T00:37:31.176Z,0
2016-11-01T00:42:31.122Z,0
2016-11-01T00:47:31.074Z,0
2016-11-01T00:52:31.022Z,0
2016-11-01T00:57:30.700Z,0
2016-11-01T01:02:30.610Z,0
2016-11-01T01:07:30.564Z,0
2016-11-01T01:12:30.820Z,0
2016-11-01T01:17:30.194Z,0
2016-11-01T01:22:30.141Z,0
2016-11-01T01:27:30.664Z,0
2016-11-01T01:32:30.613Z,0
2016-11-01T01:37:29.649Z,0
2016-11-01T01:42:30.203Z,0
2016-11-01T01:47:30.153Z,0
2016-11-01T01:52:29.491Z,0
2016-11-01T01:57:30.353Z,0
2016-11-01T02:02:30.001Z,0
2016-11-01T02:07:30.263Z,0
2016-11-01T02:12:29.586Z,0
2016-11-01T02:17:30.144Z,0
2016-11-01T02:22:30.087Z,0
2016-11-01T02:27:30.039Z,0
2016-11-01T02:32:29.683Z,0
2016-11-01T02:37:29.926Z,0
2016-11-01T02:42:29.568Z,0
2016-11-01T02:47:29.525Z,0
2016-11-01T02:52:29.769Z,0
2016-11-01T02:57:29.717Z,0
2016-11-01T03:02:29.667Z,0
2016-11-01T03:07:29.612Z,0
2016-11-01T03:12:29.562Z,0
2016-11-01T03:17:29.501Z,0
2016-11-01T03:22:29.449Z,0
2016-11-01T03:27:29.402Z,0
2016-11-01T03:32:29.357Z,0
2016-11-01T03:37:29.330Z,0
2016-11-01T03:42:28.944Z,0
2016-11-01T03:47:29.188Z,0
2016-11-01T03:52:29.134Z,0
2016-11-01T03:57:29.083Z,0
2016-11-01T04:02:29.035Z,0
2016-11-01T04:07:29.034Z,0
2016-11-01T04:12:28.928Z,0
2016-11-01T04:17:28.576Z,0
2016-11-01T04:22:28.824Z,0
2016-11-01T04:27:28.767Z,0
2016-11-01T04:32:28.719Z,0
2016-11-01T04:37:28.667Z,0
2016-11-01T04:42:28.643Z,0
2016-11-01T04:47:28.555Z,0
2016-11-01T04:52:28.502Z,0
2016-11-01T04:57:28.451Z,0
2016-11-01T05:02:28.393Z,0
2016-11-01T05:07:28.345Z,0
2016-11-01T05:12:27.985Z,0
2016-11-01T05:17:28.237Z,0
2016-11-01T05:22:27.881Z,0
2016-11-01T05:27:28.153Z,0
2016-11-01T05:32:27.786Z,0
2016-11-01T05:37:27.406Z,0
2016-11-01T05:42:27.355Z,0
2016-11-01T05:47:27.620Z,0
2016-11-01T05:52:27.239Z,0
2016-11-01T05:57:27.210Z,0
2016-11-01T06:02:27.439Z,0
2016-11-01T06:07:27.687Z,0
2016-11-01T06:12:27.634Z,0
2016-11-01T06:17:27.600Z,0
2016-11-01T06:22:27.533Z,0
2016-11-01T06:27:27.165Z,0
2016-11-01T06:32:27.414Z,0
2016-11-01T06:37:27.349Z,0
2016-11-01T06:42:26.690Z,0
2016-11-01T06:47:26.968Z,0
2016-11-01T06:52:26.873Z,4
2016-11-01T06:57:27.126Z,8
2016-11-01T07:02:27.063Z,4
2016-11-01T07:07:26.710Z,8
2016-11-01T07:12:26.660Z,8
2016-11-01T07:17:26.900Z,12
2016-11-01T07:22:26.859Z,12
2016-11-01T07:27:26.501Z,8
2016-11-01T07:32:26.751Z,12
2016-11-01T07:37:26.393Z,8
2016-11-01T07:42:26.652Z,12
2016-11-01T07:47:26.591Z,12
2016-11-01T07:52:26.240Z,8
2016-11-01T07:57:26.178Z,8
2016-11-01T08:02:26.435Z,12
2016-11-01T08:07:26.077Z,12
2016-11-01T08:12:26.322Z,12
2016-11-01T08:17:25.975Z,16
2016-11-01T08:22:26.229Z,20
2016-11-01T08:27:25.559Z,16
2016-11-01T08:32:25.816Z,16
2016-11-01T08:37:26.065Z,16
2016-11-01T08:42:25.712Z,12
2016-11-01T08:47:25.665Z,16
2016-11-01T08:52:25.304Z,16
2016-11-01T08:57:25.550Z,12
2016-11-01T09:02:25.799Z,12
2016-11-01T09:07:25.449Z,20
2016-11-01T09:12:25.717Z,24
2016-11-01T09:17:25.345Z,28
2016-11-01T09:22:25.594Z,20
2016-11-01T09:27:25.241Z,24
2016-11-01T09:32:24.886Z,28
2016-11-01T09:37:24.834Z,20
2016-11-01T09:42:24.788Z,24
2016-11-01T09:47:25.044Z,28
2016-11-01T09:52:24.989Z,20
2016-11-01T09:57:24.937Z,16
2016-11-01T10:02:25.199Z,28
2016-11-01T10:07:25.139Z,24
2016-11-01T10:12:24.474Z,20
2016-11-01T10:17:25.040Z,24
2016-11-01T10:22:24.373Z,28
2016-11-01T10:27:24.927Z,20
2016-11-01T10:32:24.899Z,24
2016-11-01T10:37:24.223Z,16
2016-11-01T10:42:24.777Z,16
2016-11-01T10:47:24.424Z,24
2016-11-01T10:52:24.671Z,40
2016-11-01T10:57:24.663Z,28
2016-11-01T11:02:24.271Z,20
2016-11-01T11:07:23.910Z,28
2016-11-01T11:12:24.178Z,12
2016-11-01T11:17:23.816Z,16
2016-11-01T11:22:24.065Z,12
2016-11-01T11:27:24.020Z,20
2016-11-01T11:32:23.975Z,48
2016-11-01T11:37:24.217Z,40
2016-11-01T11:42:24.171Z,12
2016-11-01T11:47:23.506Z,16
2016-11-01T11:52:23.758Z,44
2016-11-01T11:57:23.397Z,36
2016-11-01T12:02:23.955Z,40
2016-11-01T12:07:23.598Z,52
2016-11-01T12:12:23.852Z,60
2016-11-01T12:17:23.805Z,52
2016-11-01T12:22:23.452Z,40
2016-11-01T12:27:23.708Z,44
2016-11-01T12:32:23.693Z,60
2016-11-01T12:37:22.999Z,44
2016-11-01T12:42:23.281Z,32
2016-11-01T12:47:23.197Z,24
2016-11-01T12:52:23.142Z,20
2016-11-01T12:57:23.406Z,16
2016-11-01T13:02:23.393Z,12
2016-11-01T13:07:22.997Z,16
2016-11-01T13:12:22.946Z,20
2016-11-01T13:17:22.610Z,24
2016-11-01T13:22:22.843Z,16
2016-11-01T13:27:22.485Z,12
2016-11-01T13:32:22.775Z,8
2016-11-01T13:37:22.688Z,12
2016-11-01T13:42:22.955Z,4
2016-11-01T13:47:22.905Z,8
2016-11-01T13:52:22.847Z,12
2016-11-01T13:57:22.810Z,8
2016-11-01T14:02:22.440Z,12
2016-11-01T14:07:22.693Z,8
2016-11-01T14:12:22.645Z,8
2016-11-01T14:17:22.627Z,4
2016-11-01T14:22:22.544Z,4
2016-11-01T14:27:22.181Z,4
2016-11-01T14:32:21.824Z,8
2016-11-01T14:37:22.383Z,4
2016-11-01T14:42:22.023Z,4
2016-11-01T14:47:21.974Z,4
2016-11-01T14:52:21.921Z,0
2016-11-01T14:57:22.176Z,4
2016-11-01T15:02:21.819Z,4
2016-11-01T15:07:21.761Z,4
2016-11-01T15:12:21.708Z,0
2016-11-01T15:17:21.968Z,0
2016-11-01T15:22:21.605Z,4
2016-11-01T15:27:21.802Z,0
2016-11-01T15:32:21.525Z,4
2016-11-01T15:37:21.452Z,0
2016-11-01T15:42:21.399Z,4
2016-11-01T15:47:21.663Z,4
2016-11-01T15:52:21.620Z,0
2016-11-01T15:57:21.570Z,4
2016-11-01T16:02:20.900Z,4
2016-11-01T16:07:21.466Z,4
2016-11-01T16:12:21.410Z,4
2016-11-01T16:17:20.754Z,4
2016-11-01T16:22:20.393Z,4
2016-11-01T16:27:20.945Z,4
2016-11-01T16:32:21.194Z,4
2016-11-01T16:37:21.018Z,4
2016-11-01T16:42:21.134Z,4
2016-11-01T16:47:20.747Z,4
2016-11-01T16:52:20.991Z,4
2016-11-01T16:57:20.951Z,4
2016-11-01T17:02:20.588Z,4
2016-11-01T17:07:20.842Z,4
2016-11-01T17:12:20.201Z,4
2016-11-01T17:17:20.761Z,4
2016-11-01T17:22:20.091Z,4
2016-11-01T17:27:20.657Z,4
2016-11-01T17:32:20.610Z,4
2016-11-01T17:37:20.257Z,4
2016-11-01T17:42:20.200Z,4
2016-11-01T17:47:20.161Z,4
2016-11-01T17:52:19.800Z,0
2016-11-01T17:57:20.066Z,0
2016-11-01T18:02:20.019Z,0
2016-11-01T18:07:20.270Z,0
2016-11-01T18:12:19.903Z,0
2016-11-01T18:17:19.872Z,0
2016-11-01T18:22:19.811Z,0
2016-11-01T18:27:19.773Z,0
2016-11-01T18:32:19.709Z,0
2016-11-01T18:37:19.676Z,0
2016-11-01T18:42:19.618Z,0
2016-11-01T18:47:19.869Z,0
2016-11-01T18:52:19.203Z,0
2016-11-01T18:57:19.781Z,0
2016-11-01T19:02:18.808Z,0
2016-11-01T19:07:19.677Z,4
2016-11-01T19:12:19.625Z,4
2016-11-01T19:17:19.592Z,4
2016-11-01T19:22:18.922Z,4
2016-11-01T19:27:19.523Z,4
2016-11-01T19:32:18.832Z,4
2016-11-01T19:37:19.088Z,4
2016-11-01T19:42:19.352Z,4
2016-11-01T19:47:19.298Z,4
2016-11-01T19:52:18.963Z,4
2016-11-01T19:57:18.917Z,4
2016-11-01T20:02:19.222Z,4
2016-11-01T20:07:18.820Z,4
2016-11-01T20:12:19.092Z,4
2016-11-01T20:17:18.735Z,4
2016-11-01T20:22:18.373Z,4
2016-11-01T20:27:18.947Z,4
2016-11-01T20:32:18.938Z,4
2016-11-01T20:37:18.539Z,4
2016-11-01T20:42:18.796Z,4
2016-11-01T20:47:18.452Z,4
2016-11-01T20:52:18.411Z,4
2016-11-01T20:57:18.667Z,4
2016-11-01T21:02:17.996Z,4
2016-11-01T21:07:18.568Z,4
2016-11-01T21:12:18.206Z,4
2016-11-01T21:17:18.467Z,4
2016-11-01T21:22:18.115Z,4
2016-11-01T21:27:18.407Z,4
2016-11-01T21:32:18.335Z,4
2016-11-01T21:37:17.989Z,4
2016-11-01T21:42:18.231Z,8
2016-11-01T21:47:17.883Z,4
2016-11-01T21:52:18.146Z,4
2016-11-01T21:57:17.176Z,8
2016-11-01T22:02:17.750Z,4
2016-11-01T22:07:17.695Z,4
2016-11-01T22:12:17.690Z,8
2016-11-01T22:17:17.913Z,8
2016-11-01T22:22:17.870Z,8
2016-11-01T22:27:17.804Z,8
2016-11-01T22:32:17.757Z,8
2016-11-01T22:37:17.718Z,8
2016-11-01T22:42:17.703Z,8
2016-11-01T22:47:17.324Z,8
2016-11-01T22:52:17.271Z,4
2016-11-01T22:57:17.519Z,0
2016-11-01T23:02:17.478Z,0
2016-11-01T23:07:17.120Z,0
2016-11-01T23:12:17.373Z,0
2016-11-01T23:17:17.337Z,0
2016-11-01T23:22:16.981Z,0
2016-11-01T23:27:17.234Z,0
2016-11-01T23:32:17.187Z,0
2016-11-01T23:37:16.827Z,0
2016-11-01T23:42:17.122Z,0
2016-11-01T23:47:17.044Z,0
2016-11-01T23:52:16.684Z,0
2016-11-01T23:57:16.949Z,0
